sensor_id;sensor_type;location;lat;lon;timestamp;temperature;humidity
23783;DHT22;12071;50.850;4.446;2022-12-24T00:01:52;11.50;1.00
23783;DHT22;12071;50.850;4.446;2022-12-24T00:04:18;11.50;1.00
23783;DHT22;12071;50.850;4.446;2022-12-24T00:06:44;11.50;1.00
23783;DHT22;12071;50.850;4.446;2022-12-24T00:09:11;11.40;1.00
23783;DHT22;12071;50.850;4.446;2022-12-24T00:11:37;11.50;1.00
23783;DHT22;12071;50.850;4.446;2022-12-24T00:14:02;11.40;1.00
23783;DHT22;12071;50.850;4.446;2022-12-24T00:16:28;11.40;1.00
23783;DHT22;12071;50.850;4.446;2022-12-24T00:18:54;11.40;1.00
23783;DHT22;12071;50.850;4.446;2022-12-24T00:21:19;11.40;1.00
23783;DHT22;12071;50.850;4.446;2022-12-24T00:23:45;11.30;1.00
23783;DHT22;12071;50.850;4.446;2022-12-24T00:26:12;11.40;1.00
23783;DHT22;12071;50.850;4.446;2022-12-24T00:28:39;11.40;1.00
23783;DHT22;12071;50.850;4.446;2022-12-24T00:31:13;11.40;1.00
23783;DHT22;12071;50.850;4.446;2022-12-24T00:33:39;11.40;1.00
23783;DHT22;12071;50.850;4.446;2022-12-24T00:36:05;11.40;1.00
23783;DHT22;12071;50.850;4.446;2022-12-24T00:38:31;11.40;1.00
23783;DHT22;12071;50.850;4.446;2022-12-24T00:41:08;11.20;1.00
23783;DHT22;12071;50.850;4.446;2022-12-24T00:43:59;11.30;1.00
23783;DHT22;12071;50.850;4.446;2022-12-24T00:46:26;11.20;1.10
23783;DHT22;12071;50.850;4.446;2022-12-24T00:48:52;11.10;6.40
23783;DHT22;12071;50.850;4.446;2022-12-24T00:51:19;11.00;14.00
23783;DHT22;12071;50.850;4.446;2022-12-24T00:53:44;11.00;21.10
23783;DHT22;12071;50.850;4.446;2022-12-24T00:56:13;11.00;25.30
23783;DHT22;12071;50.850;4.446;2022-12-24T00:58:38;11.00;27.20
23783;DHT22;12071;50.850;4.446;2022-12-24T01:01:04;11.00;30.00
23783;DHT22;12071;50.850;4.446;2022-12-24T01:03:30;10.90;32.80
23783;DHT22;12071;50.850;4.446;2022-12-24T01:06:04;10.90;36.40
23783;DHT22;12071;50.850;4.446;2022-12-24T01:08:30;10.90;43.30
23783;DHT22;12071;50.850;4.446;2022-12-24T01:10:56;10.90;44.30
23783;DHT22;12071;50.850;4.446;2022-12-24T01:13:23;10.90;45.00
23783;DHT22;12071;50.850;4.446;2022-12-24T01:15:48;10.90;51.40
23783;DHT22;12071;50.850;4.446;2022-12-24T01:18:14;10.90;53.50
23783;DHT22;12071;50.850;4.446;2022-12-24T01:20:40;10.80;54.60
23783;DHT22;12071;50.850;4.446;2022-12-24T01:23:05;10.90;58.20
23783;DHT22;12071;50.850;4.446;2022-12-24T01:25:31;10.90;59.00
23783;DHT22;12071;50.850;4.446;2022-12-24T01:27:56;10.90;60.40
23783;DHT22;12071;50.850;4.446;2022-12-24T01:30:22;10.80;61.30
23783;DHT22;12071;50.850;4.446;2022-12-24T01:32:48;10.80;67.60
23783;DHT22;12071;50.850;4.446;2022-12-24T01:35:13;10.80;66.30
23783;DHT22;12071;50.850;4.446;2022-12-24T01:37:41;10.60;64.00
23783;DHT22;12071;50.850;4.446;2022-12-24T01:40:09;10.70;67.50
23783;DHT22;12071;50.850;4.446;2022-12-24T01:42:55;10.60;67.40
23783;DHT22;12071;50.850;4.446;2022-12-24T01:48:22;10.60;69.90
23783;DHT22;12071;50.850;4.446;2022-12-24T01:50:55;10.60;72.50
23783;DHT22;12071;50.850;4.446;2022-12-24T01:53:22;10.60;70.80
23783;DHT22;12071;50.850;4.446;2022-12-24T01:55:48;10.60;73.20
23783;DHT22;12071;50.850;4.446;2022-12-24T01:58:15;10.60;75.90
23783;DHT22;12071;50.850;4.446;2022-12-24T02:00:42;10.60;79.50
23783;DHT22;12071;50.850;4.446;2022-12-24T02:03:07;10.60;83.40
23783;DHT22;12071;50.850;4.446;2022-12-24T02:05:54;10.60;84.50
23783;DHT22;12071;50.850;4.446;2022-12-24T02:08:22;10.60;86.40
23783;DHT22;12071;50.850;4.446;2022-12-24T02:10:49;10.70;86.90
23783;DHT22;12071;50.850;4.446;2022-12-24T02:13:18;10.80;86.00
23783;DHT22;12071;50.850;4.446;2022-12-24T02:27:00;10.90;73.10
23783;DHT22;12071;50.850;4.446;2022-12-24T02:37:33;10.80;72.00
23783;DHT22;12071;50.850;4.446;2022-12-24T02:40:12;10.80;74.30
23783;DHT22;12071;50.850;4.446;2022-12-24T02:42:43;10.80;71.80
23783;DHT22;12071;50.850;4.446;2022-12-24T02:45:13;10.80;70.80
23783;DHT22;12071;50.850;4.446;2022-12-24T02:47:41;10.80;72.10
23783;DHT22;12071;50.850;4.446;2022-12-24T02:50:10;10.90;72.10
23783;DHT22;12071;50.850;4.446;2022-12-24T02:52:42;11.00;70.40
23783;DHT22;12071;50.850;4.446;2022-12-24T02:55:19;10.90;70.70
23783;DHT22;12071;50.850;4.446;2022-12-24T03:00:21;11.00;66.70
23783;DHT22;12071;50.850;4.446;2022-12-24T03:03:06;10.90;66.90
23783;DHT22;12071;50.850;4.446;2022-12-24T03:05:42;10.90;72.40
23783;DHT22;12071;50.850;4.446;2022-12-24T03:11:11;11.10;70.30
23783;DHT22;12071;50.850;4.446;2022-12-24T03:13:39;11.00;69.70
23783;DHT22;12071;50.850;4.446;2022-12-24T03:16:18;11.00;71.10
23783;DHT22;12071;50.850;4.446;2022-12-24T03:18:47;11.00;72.00
23783;DHT22;12071;50.850;4.446;2022-12-24T03:21:25;11.00;69.60
23783;DHT22;12071;50.850;4.446;2022-12-24T03:23:52;10.90;71.40
23783;DHT22;12071;50.850;4.446;2022-12-24T03:26:19;10.70;69.80
23783;DHT22;12071;50.850;4.446;2022-12-24T03:28:45;10.70;73.00
23783;DHT22;12071;50.850;4.446;2022-12-24T03:31:12;10.80;77.20
23783;DHT22;12071;50.850;4.446;2022-12-24T03:33:38;10.80;75.90
23783;DHT22;12071;50.850;4.446;2022-12-24T03:36:04;10.80;75.30
23783;DHT22;12071;50.850;4.446;2022-12-24T03:38:31;10.90;75.10
23783;DHT22;12071;50.850;4.446;2022-12-24T03:40:56;10.80;72.50
23783;DHT22;12071;50.850;4.446;2022-12-24T03:43:22;10.80;71.70
23783;DHT22;12071;50.850;4.446;2022-12-24T03:45:48;10.80;70.60
23783;DHT22;12071;50.850;4.446;2022-12-24T03:48:13;10.80;70.70
23783;DHT22;12071;50.850;4.446;2022-12-24T03:50:39;10.80;71.00
23783;DHT22;12071;50.850;4.446;2022-12-24T03:53:04;10.80;72.30
23783;DHT22;12071;50.850;4.446;2022-12-24T03:55:30;10.90;71.70
23783;DHT22;12071;50.850;4.446;2022-12-24T03:57:57;10.90;66.20
23783;DHT22;12071;50.850;4.446;2022-12-24T04:00:22;10.80;67.60
23783;DHT22;12071;50.850;4.446;2022-12-24T04:02:48;10.80;68.80
23783;DHT22;12071;50.850;4.446;2022-12-24T04:05:16;10.80;68.50
23783;DHT22;12071;50.850;4.446;2022-12-24T04:07:43;10.80;68.00
23783;DHT22;12071;50.850;4.446;2022-12-24T04:10:09;10.80;65.70
23783;DHT22;12071;50.850;4.446;2022-12-24T04:12:35;10.80;66.00
23783;DHT22;12071;50.850;4.446;2022-12-24T04:15:01;10.80;66.80
23783;DHT22;12071;50.850;4.446;2022-12-24T04:17:28;10.90;65.80
23783;DHT22;12071;50.850;4.446;2022-12-24T04:19:53;10.90;58.30
23783;DHT22;12071;50.850;4.446;2022-12-24T04:22:19;10.90;55.30
23783;DHT22;12071;50.850;4.446;2022-12-24T04:24:44;10.90;56.00
23783;DHT22;12071;50.850;4.446;2022-12-24T04:27:12;10.90;53.30
23783;DHT22;12071;50.850;4.446;2022-12-24T04:29:37;11.00;48.70
23783;DHT22;12071;50.850;4.446;2022-12-24T04:32:03;10.80;46.70
23783;DHT22;12071;50.850;4.446;2022-12-24T04:34:29;11.00;46.00
23783;DHT22;12071;50.850;4.446;2022-12-24T04:36:54;11.00;41.90
23783;DHT22;12071;50.850;4.446;2022-12-24T04:39:20;11.00;42.20
23783;DHT22;12071;50.850;4.446;2022-12-24T04:41:45;11.00;37.30
23783;DHT22;12071;50.850;4.446;2022-12-24T04:44:11;11.00;35.70
23783;DHT22;12071;50.850;4.446;2022-12-24T04:46:37;10.90;38.10
23783;DHT22;12071;50.850;4.446;2022-12-24T04:49:03;10.90;37.90
23783;DHT22;12071;50.850;4.446;2022-12-24T04:51:29;10.80;37.70
23783;DHT22;12071;50.850;4.446;2022-12-24T04:53:55;10.90;43.50
23783;DHT22;12071;50.850;4.446;2022-12-24T04:56:26;10.90;40.00
23783;DHT22;12071;50.850;4.446;2022-12-24T04:58:53;10.90;32.10
23783;DHT22;12071;50.850;4.446;2022-12-24T05:01:21;10.90;31.60
23783;DHT22;12071;50.850;4.446;2022-12-24T05:03:47;10.80;33.20
23783;DHT22;12071;50.850;4.446;2022-12-24T05:06:15;10.80;35.30
23783;DHT22;12071;50.850;4.446;2022-12-24T05:08:42;10.80;36.00
23783;DHT22;12071;50.850;4.446;2022-12-24T05:11:08;10.80;35.70
23783;DHT22;12071;50.850;4.446;2022-12-24T05:13:34;10.80;36.10
23783;DHT22;12071;50.850;4.446;2022-12-24T05:16:00;10.80;36.90
23783;DHT22;12071;50.850;4.446;2022-12-24T05:18:26;10.70;36.10
23783;DHT22;12071;50.850;4.446;2022-12-24T05:20:52;10.70;38.20
23783;DHT22;12071;50.850;4.446;2022-12-24T05:23:19;10.70;39.30
23783;DHT22;12071;50.850;4.446;2022-12-24T05:26:16;10.70;39.10
23783;DHT22;12071;50.850;4.446;2022-12-24T05:28:53;10.80;37.70
23783;DHT22;12071;50.850;4.446;2022-12-24T05:31:20;10.80;34.70
23783;DHT22;12071;50.850;4.446;2022-12-24T05:33:46;10.80;32.30
23783;DHT22;12071;50.850;4.446;2022-12-24T05:36:11;10.80;29.70
23783;DHT22;12071;50.850;4.446;2022-12-24T05:38:37;10.70;30.60
23783;DHT22;12071;50.850;4.446;2022-12-24T05:41:03;10.60;34.50
23783;DHT22;12071;50.850;4.446;2022-12-24T05:43:29;10.70;39.40
23783;DHT22;12071;50.850;4.446;2022-12-24T05:45:59;10.90;32.60
23783;DHT22;12071;50.850;4.446;2022-12-24T05:48:25;10.80;28.60
23783;DHT22;12071;50.850;4.446;2022-12-24T05:50:51;10.70;30.80
23783;DHT22;12071;50.850;4.446;2022-12-24T05:53:17;10.80;34.60
23783;DHT22;12071;50.850;4.446;2022-12-24T05:55:42;10.70;34.80
23783;DHT22;12071;50.850;4.446;2022-12-24T05:58:08;10.80;36.90
23783;DHT22;12071;50.850;4.446;2022-12-24T06:00:33;10.80;35.30
23783;DHT22;12071;50.850;4.446;2022-12-24T06:02:59;10.80;36.30
23783;DHT22;12071;50.850;4.446;2022-12-24T06:05:25;10.90;32.70
23783;DHT22;12071;50.850;4.446;2022-12-24T06:07:50;11.00;29.70
23783;DHT22;12071;50.850;4.446;2022-12-24T06:10:16;10.90;29.20
23783;DHT22;12071;50.850;4.446;2022-12-24T06:12:41;11.00;28.90
23783;DHT22;12071;50.850;4.446;2022-12-24T06:15:07;11.00;23.50
23783;DHT22;12071;50.850;4.446;2022-12-24T06:17:33;10.90;24.20
23783;DHT22;12071;50.850;4.446;2022-12-24T06:19:59;10.80;25.20
23783;DHT22;12071;50.850;4.446;2022-12-24T06:22:24;10.80;28.20
23783;DHT22;12071;50.850;4.446;2022-12-24T06:24:50;10.90;29.90
23783;DHT22;12071;50.850;4.446;2022-12-24T06:27:16;11.00;26.70
23783;DHT22;12071;50.850;4.446;2022-12-24T06:29:41;11.00;27.40
23783;DHT22;12071;50.850;4.446;2022-12-24T06:32:07;11.00;28.10
23783;DHT22;12071;50.850;4.446;2022-12-24T06:34:32;11.00;25.80
23783;DHT22;12071;50.850;4.446;2022-12-24T06:36:58;10.90;24.20
23783;DHT22;12071;50.850;4.446;2022-12-24T06:39:23;10.80;27.90
23783;DHT22;12071;50.850;4.446;2022-12-24T06:41:50;10.80;29.20
23783;DHT22;12071;50.850;4.446;2022-12-24T06:44:15;10.80;30.10
23783;DHT22;12071;50.850;4.446;2022-12-24T06:46:41;10.80;29.90
23783;DHT22;12071;50.850;4.446;2022-12-24T06:49:06;10.80;28.20
23783;DHT22;12071;50.850;4.446;2022-12-24T06:51:32;10.80;27.40
23783;DHT22;12071;50.850;4.446;2022-12-24T06:53:58;10.70;29.00
23783;DHT22;12071;50.850;4.446;2022-12-24T06:56:23;10.80;27.40
23783;DHT22;12071;50.850;4.446;2022-12-24T06:58:49;10.80;25.50
23783;DHT22;12071;50.850;4.446;2022-12-24T07:01:17;10.80;23.80
23783;DHT22;12071;50.850;4.446;2022-12-24T07:03:44;10.80;25.90
23783;DHT22;12071;50.850;4.446;2022-12-24T07:08:42;10.90;21.70
23783;DHT22;12071;50.850;4.446;2022-12-24T07:11:07;10.80;19.20
23783;DHT22;12071;50.850;4.446;2022-12-24T07:13:33;10.80;22.90
23783;DHT22;12071;50.850;4.446;2022-12-24T07:16:00;10.70;24.10
23783;DHT22;12071;50.850;4.446;2022-12-24T07:18:26;10.80;25.80
23783;DHT22;12071;50.850;4.446;2022-12-24T07:20:52;10.80;23.40
23783;DHT22;12071;50.850;4.446;2022-12-24T07:23:17;10.80;18.30
23783;DHT22;12071;50.850;4.446;2022-12-24T07:25:43;11.00;15.60
23783;DHT22;12071;50.850;4.446;2022-12-24T07:28:08;10.80;14.80
23783;DHT22;12071;50.850;4.446;2022-12-24T07:30:34;10.90;18.20
23783;DHT22;12071;50.850;4.446;2022-12-24T07:33:00;10.90;16.10
23783;DHT22;12071;50.850;4.446;2022-12-24T07:35:25;10.80;15.70
23783;DHT22;12071;50.850;4.446;2022-12-24T07:37:51;10.90;15.80
23783;DHT22;12071;50.850;4.446;2022-12-24T07:40:16;10.80;14.10
23783;DHT22;12071;50.850;4.446;2022-12-24T07:42:42;10.80;17.00
23783;DHT22;12071;50.850;4.446;2022-12-24T07:45:08;10.90;11.50
23783;DHT22;12071;50.850;4.446;2022-12-24T07:47:34;10.70;12.00
23783;DHT22;12071;50.850;4.446;2022-12-24T07:50:00;10.70;18.40
23783;DHT22;12071;50.850;4.446;2022-12-24T07:52:25;10.70;18.10
23783;DHT22;12071;50.850;4.446;2022-12-24T07:54:51;10.70;22.80
23783;DHT22;12071;50.850;4.446;2022-12-24T07:57:16;10.80;20.60
23783;DHT22;12071;50.850;4.446;2022-12-24T07:59:42;10.80;14.90
23783;DHT22;12071;50.850;4.446;2022-12-24T08:02:11;10.80;13.40
23783;DHT22;12071;50.850;4.446;2022-12-24T08:04:36;10.70;16.30
23783;DHT22;12071;50.850;4.446;2022-12-24T08:07:04;10.80;18.60
23783;DHT22;12071;50.850;4.446;2022-12-24T08:09:31;10.80;11.80
23783;DHT22;12071;50.850;4.446;2022-12-24T08:11:57;10.80;12.30
23783;DHT22;12071;50.850;4.446;2022-12-24T08:14:22;10.80;12.50
23783;DHT22;12071;50.850;4.446;2022-12-24T08:16:48;10.80;13.00
23783;DHT22;12071;50.850;4.446;2022-12-24T08:19:16;10.80;13.40
23783;DHT22;12071;50.850;4.446;2022-12-24T08:21:41;10.90;12.50
23783;DHT22;12071;50.850;4.446;2022-12-24T08:24:07;11.00;9.50
23783;DHT22;12071;50.850;4.446;2022-12-24T08:26:33;11.00;4.90
23783;DHT22;12071;50.850;4.446;2022-12-24T08:28:58;11.00;4.20
23783;DHT22;12071;50.850;4.446;2022-12-24T08:31:24;11.20;2.00
23783;DHT22;12071;50.850;4.446;2022-12-24T08:33:50;11.10;1.00
23783;DHT22;12071;50.850;4.446;2022-12-24T08:36:15;11.00;1.00
23783;DHT22;12071;50.850;4.446;2022-12-24T08:38:41;11.10;1.00
23783;DHT22;12071;50.850;4.446;2022-12-24T08:41:06;10.90;1.00
23783;DHT22;12071;50.850;4.446;2022-12-24T08:43:32;11.00;2.90
23783;DHT22;12071;50.850;4.446;2022-12-24T08:46:02;11.10;1.00
23783;DHT22;12071;50.850;4.446;2022-12-24T08:48:29;11.20;1.00
23783;DHT22;12071;50.850;4.446;2022-12-24T08:50:55;11.10;1.00
23783;DHT22;12071;50.850;4.446;2022-12-24T08:53:20;11.10;1.00
23783;DHT22;12071;50.850;4.446;2022-12-24T08:55:46;11.00;1.00
23783;DHT22;12071;50.850;4.446;2022-12-24T08:58:13;11.10;1.00
23783;DHT22;12071;50.850;4.446;2022-12-24T09:00:40;11.20;1.00
23783;DHT22;12071;50.850;4.446;2022-12-24T09:03:06;11.20;1.00
23783;DHT22;12071;50.850;4.446;2022-12-24T09:05:31;11.20;1.00
23783;DHT22;12071;50.850;4.446;2022-12-24T09:07:57;11.20;1.00
23783;DHT22;12071;50.850;4.446;2022-12-24T09:10:23;11.20;1.00
23783;DHT22;12071;50.850;4.446;2022-12-24T09:12:48;11.30;1.00
23783;DHT22;12071;50.850;4.446;2022-12-24T09:15:15;11.40;1.00
23783;DHT22;12071;50.850;4.446;2022-12-24T09:17:41;11.30;1.00
23783;DHT22;12071;50.850;4.446;2022-12-24T09:20:07;11.40;1.00
23783;DHT22;12071;50.850;4.446;2022-12-24T09:22:36;11.30;1.00
23783;DHT22;12071;50.850;4.446;2022-12-24T09:25:02;11.20;1.00
23783;DHT22;12071;50.850;4.446;2022-12-24T09:27:29;11.30;1.00
23783;DHT22;12071;50.850;4.446;2022-12-24T09:29:55;11.30;1.00
23783;DHT22;12071;50.850;4.446;2022-12-24T09:32:21;11.40;1.00
23783;DHT22;12071;50.850;4.446;2022-12-24T09:34:47;11.40;1.00
23783;DHT22;12071;50.850;4.446;2022-12-24T09:37:13;11.30;1.00
23783;DHT22;12071;50.850;4.446;2022-12-24T09:39:39;11.30;1.00
23783;DHT22;12071;50.850;4.446;2022-12-24T09:45:30;11.50;1.00
23783;DHT22;12071;50.850;4.446;2022-12-24T09:50:42;11.40;1.00
23783;DHT22;12071;50.850;4.446;2022-12-24T09:56:30;11.60;1.00
23783;DHT22;12071;50.850;4.446;2022-12-24T09:59:00;11.60;1.00
23783;DHT22;12071;50.850;4.446;2022-12-24T10:01:29;11.70;1.00
23783;DHT22;12071;50.850;4.446;2022-12-24T10:03:57;11.70;1.00
23783;DHT22;12071;50.850;4.446;2022-12-24T10:06:32;11.60;1.00
23783;DHT22;12071;50.850;4.446;2022-12-24T10:09:10;11.50;1.00
23783;DHT22;12071;50.850;4.446;2022-12-24T10:20:19;11.50;1.00
23783;DHT22;12071;50.850;4.446;2022-12-24T10:22:56;11.70;1.00
23783;DHT22;12071;50.850;4.446;2022-12-24T10:27:54;11.80;1.00
23783;DHT22;12071;50.850;4.446;2022-12-24T10:30:23;11.80;1.00
23783;DHT22;12071;50.850;4.446;2022-12-24T10:32:51;11.70;1.00
23783;DHT22;12071;50.850;4.446;2022-12-24T10:35:22;11.90;1.00
23783;DHT22;12071;50.850;4.446;2022-12-24T10:37:49;11.90;1.00
23783;DHT22;12071;50.850;4.446;2022-12-24T10:43:24;12.10;1.00
23783;DHT22;12071;50.850;4.446;2022-12-24T10:45:57;12.10;1.00
23783;DHT22;12071;50.850;4.446;2022-12-24T10:48:31;12.00;1.00
23783;DHT22;12071;50.850;4.446;2022-12-24T10:51:09;12.10;1.00
23783;DHT22;12071;50.850;4.446;2022-12-24T10:53:48;12.20;1.00
23783;DHT22;12071;50.850;4.446;2022-12-24T10:56:18;12.30;1.00
23783;DHT22;12071;50.850;4.446;2022-12-24T10:58:45;12.30;1.00
23783;DHT22;12071;50.850;4.446;2022-12-24T11:01:15;12.20;1.00
23783;DHT22;12071;50.850;4.446;2022-12-24T11:03:40;12.00;1.00
23783;DHT22;12071;50.850;4.446;2022-12-24T11:08:38;12.20;1.00
23783;DHT22;12071;50.850;4.446;2022-12-24T11:11:12;12.20;1.00
23783;DHT22;12071;50.850;4.446;2022-12-24T11:18:50;12.20;1.00
23783;DHT22;12071;50.850;4.446;2022-12-24T11:21:26;12.30;1.00
23783;DHT22;12071;50.850;4.446;2022-12-24T11:23:58;12.30;1.00
23783;DHT22;12071;50.850;4.446;2022-12-24T11:26:27;12.20;1.00
23783;DHT22;12071;50.850;4.446;2022-12-24T11:29:26;12.30;1.00
23783;DHT22;12071;50.850;4.446;2022-12-24T11:32:13;12.30;1.00
23783;DHT22;12071;50.850;4.446;2022-12-24T11:34:42;12.40;1.00
23783;DHT22;12071;50.850;4.446;2022-12-24T11:39:40;12.40;1.00
23783;DHT22;12071;50.850;4.446;2022-12-24T11:42:06;12.30;1.00
23783;DHT22;12071;50.850;4.446;2022-12-24T11:44:48;12.30;1.00
23783;DHT22;12071;50.850;4.446;2022-12-24T11:47:14;12.50;1.00
23783;DHT22;12071;50.850;4.446;2022-12-24T11:49:40;12.60;1.00
23783;DHT22;12071;50.850;4.446;2022-12-24T11:57:30;12.80;1.00
23783;DHT22;12071;50.850;4.446;2022-12-24T12:00:00;12.70;1.00
23783;DHT22;12071;50.850;4.446;2022-12-24T12:02:30;12.60;1.00
23783;DHT22;12071;50.850;4.446;2022-12-24T12:05:36;12.80;1.00
23783;DHT22;12071;50.850;4.446;2022-12-24T12:08:14;12.80;1.00
23783;DHT22;12071;50.850;4.446;2022-12-24T12:10:42;12.60;1.00
23783;DHT22;12071;50.850;4.446;2022-12-24T12:13:15;12.80;1.00
23783;DHT22;12071;50.850;4.446;2022-12-24T12:15:53;12.90;1.00
23783;DHT22;12071;50.850;4.446;2022-12-24T12:18:27;13.10;1.00
23783;DHT22;12071;50.850;4.446;2022-12-24T12:21:04;12.90;99.90
23783;DHT22;12071;50.850;4.446;2022-12-24T12:23:57;12.60;1.00
23783;DHT22;12071;50.850;4.446;2022-12-24T12:26:28;12.80;1.00
23783;DHT22;12071;50.850;4.446;2022-12-24T12:29:26;12.80;99.90
23783;DHT22;12071;50.850;4.446;2022-12-24T12:32:01;12.70;1.00
23783;DHT22;12071;50.850;4.446;2022-12-24T12:34:54;13.00;99.90
23783;DHT22;12071;50.850;4.446;2022-12-24T12:37:30;13.20;99.90
23783;DHT22;12071;50.850;4.446;2022-12-24T12:39:59;13.30;99.90
23783;DHT22;12071;50.850;4.446;2022-12-24T12:42:33;13.00;99.90
23783;DHT22;12071;50.850;4.446;2022-12-24T12:58:41;12.90;99.90
23783;DHT22;12071;50.850;4.446;2022-12-24T13:01:21;12.90;99.90
23783;DHT22;12071;50.850;4.446;2022-12-24T13:03:52;12.90;99.90
23783;DHT22;12071;50.850;4.446;2022-12-24T13:09:32;12.90;99.90
23783;DHT22;12071;50.850;4.446;2022-12-24T13:18:18;13.50;99.90
23783;DHT22;12071;50.850;4.446;2022-12-24T13:20:49;13.30;99.90
23783;DHT22;12071;50.850;4.446;2022-12-24T13:23:23;13.40;99.90
23783;DHT22;12071;50.850;4.446;2022-12-24T13:25:54;13.30;99.90
23783;DHT22;12071;50.850;4.446;2022-12-24T13:30:51;13.40;99.90
23783;DHT22;12071;50.850;4.446;2022-12-24T13:33:47;13.40;99.90
23783;DHT22;12071;50.850;4.446;2022-12-24T13:36:15;13.40;99.90
23783;DHT22;12071;50.850;4.446;2022-12-24T13:38:53;13.60;99.90
23783;DHT22;12071;50.850;4.446;2022-12-24T13:51:47;13.40;99.90
23783;DHT22;12071;50.850;4.446;2022-12-24T13:54:18;13.40;99.90
23783;DHT22;12071;50.850;4.446;2022-12-24T13:56:47;13.40;99.90
23783;DHT22;12071;50.850;4.446;2022-12-24T14:01:49;13.30;99.90
23783;DHT22;12071;50.850;4.446;2022-12-24T14:04:26;13.50;99.90
23783;DHT22;12071;50.850;4.446;2022-12-24T14:06:53;13.50;99.90
23783;DHT22;12071;50.850;4.446;2022-12-24T14:09:24;13.40;99.90
23783;DHT22;12071;50.850;4.446;2022-12-24T14:14:28;13.60;99.90
23783;DHT22;12071;50.850;4.446;2022-12-24T14:17:22;13.60;99.90
23783;DHT22;12071;50.850;4.446;2022-12-24T14:19:52;13.40;99.90
23783;DHT22;12071;50.850;4.446;2022-12-24T14:24:54;13.30;99.90
23783;DHT22;12071;50.850;4.446;2022-12-24T14:27:26;13.20;99.90
23783;DHT22;12071;50.850;4.446;2022-12-24T14:32:39;13.70;99.90
23783;DHT22;12071;50.850;4.446;2022-12-24T14:35:16;13.50;99.90
23783;DHT22;12071;50.850;4.446;2022-12-24T14:37:57;13.40;99.90
23783;DHT22;12071;50.850;4.446;2022-12-24T14:40:31;13.40;99.90
23783;DHT22;12071;50.850;4.446;2022-12-24T14:56:44;13.30;99.90
23783;DHT22;12071;50.850;4.446;2022-12-24T14:59:17;13.30;99.90
23783;DHT22;12071;50.850;4.446;2022-12-24T15:01:43;13.40;99.90
23783;DHT22;12071;50.850;4.446;2022-12-24T15:06:48;13.20;99.90
23783;DHT22;12071;50.850;4.446;2022-12-24T15:09:32;13.00;99.90
23783;DHT22;12071;50.850;4.446;2022-12-24T15:12:00;13.10;99.90
23783;DHT22;12071;50.850;4.446;2022-12-24T15:14:29;13.10;99.90
23783;DHT22;12071;50.850;4.446;2022-12-24T15:16:58;12.90;99.90
23783;DHT22;12071;50.850;4.446;2022-12-24T15:19:30;12.90;99.90
23783;DHT22;12071;50.850;4.446;2022-12-24T15:21:58;12.90;99.90
23783;DHT22;12071;50.850;4.446;2022-12-24T15:24:27;13.10;99.90
23783;DHT22;12071;50.850;4.446;2022-12-24T15:26:54;13.00;99.90
23783;DHT22;12071;50.850;4.446;2022-12-24T15:29:23;13.10;99.90
23783;DHT22;12071;50.850;4.446;2022-12-24T15:31:57;13.20;99.90
23783;DHT22;12071;50.850;4.446;2022-12-24T15:34:37;13.20;99.90
23783;DHT22;12071;50.850;4.446;2022-12-24T15:37:06;13.10;99.90
23783;DHT22;12071;50.850;4.446;2022-12-24T15:39:38;13.00;99.90
23783;DHT22;12071;50.850;4.446;2022-12-24T15:42:06;13.10;99.90
23783;DHT22;12071;50.850;4.446;2022-12-24T15:44:40;13.10;99.90
23783;DHT22;12071;50.850;4.446;2022-12-24T15:47:17;13.00;99.90
23783;DHT22;12071;50.850;4.446;2022-12-24T15:49:48;12.90;1.00
23783;DHT22;12071;50.850;4.446;2022-12-24T15:52:16;13.20;99.90
23783;DHT22;12071;50.850;4.446;2022-12-24T15:54:47;13.30;99.90
23783;DHT22;12071;50.850;4.446;2022-12-24T15:57:25;13.20;99.90
23783;DHT22;12071;50.850;4.446;2022-12-24T15:59:55;13.30;99.90
23783;DHT22;12071;50.850;4.446;2022-12-24T16:02:35;13.40;99.90
23783;DHT22;12071;50.850;4.446;2022-12-24T16:05:34;13.40;99.90
23783;DHT22;12071;50.850;4.446;2022-12-24T16:11:10;13.50;99.90
23783;DHT22;12071;50.850;4.446;2022-12-24T16:14:25;13.50;99.90
23783;DHT22;12071;50.850;4.446;2022-12-24T16:16:50;13.50;99.90
23783;DHT22;12071;50.850;4.446;2022-12-24T16:19:29;13.30;99.90
23783;DHT22;12071;50.850;4.446;2022-12-24T16:22:02;13.10;99.90
23783;DHT22;12071;50.850;4.446;2022-12-24T16:24:47;12.90;99.90
23783;DHT22;12071;50.850;4.446;2022-12-24T16:27:12;12.80;99.90
23783;DHT22;12071;50.850;4.446;2022-12-24T16:29:38;13.00;99.90
23783;DHT22;12071;50.850;4.446;2022-12-24T16:32:04;12.80;99.90
23783;DHT22;12071;50.850;4.446;2022-12-24T16:34:31;12.80;99.90
23783;DHT22;12071;50.850;4.446;2022-12-24T16:36:58;12.90;99.90
23783;DHT22;12071;50.850;4.446;2022-12-24T16:39:28;13.00;99.90
23783;DHT22;12071;50.850;4.446;2022-12-24T16:41:57;12.80;99.90
23783;DHT22;12071;50.850;4.446;2022-12-24T16:44:42;12.80;99.90
23783;DHT22;12071;50.850;4.446;2022-12-24T16:47:26;12.70;99.90
23783;DHT22;12071;50.850;4.446;2022-12-24T16:49:53;12.50;1.00
23783;DHT22;12071;50.850;4.446;2022-12-24T16:52:20;12.50;1.00
23783;DHT22;12071;50.850;4.446;2022-12-24T16:54:47;12.50;1.00
23783;DHT22;12071;50.850;4.446;2022-12-24T16:57:13;12.70;99.90
23783;DHT22;12071;50.850;4.446;2022-12-24T16:59:39;12.40;1.00
23783;DHT22;12071;50.850;4.446;2022-12-24T17:02:05;12.40;1.00
23783;DHT22;12071;50.850;4.446;2022-12-24T17:04:32;12.30;1.00
23783;DHT22;12071;50.850;4.446;2022-12-24T17:06:58;12.20;1.00
23783;DHT22;12071;50.850;4.446;2022-12-24T17:09:25;12.00;1.00
23783;DHT22;12071;50.850;4.446;2022-12-24T17:11:51;11.90;1.00
23783;DHT22;12071;50.850;4.446;2022-12-24T17:14:17;11.80;1.00
23783;DHT22;12071;50.850;4.446;2022-12-24T17:16:42;11.80;1.00
23783;DHT22;12071;50.850;4.446;2022-12-24T17:19:08;11.70;1.00
23783;DHT22;12071;50.850;4.446;2022-12-24T17:21:34;11.50;1.00
23783;DHT22;12071;50.850;4.446;2022-12-24T17:24:00;11.60;1.00
23783;DHT22;12071;50.850;4.446;2022-12-24T17:26:26;11.70;1.00
23783;DHT22;12071;50.850;4.446;2022-12-24T17:28:53;11.80;1.00
23783;DHT22;12071;50.850;4.446;2022-12-24T17:31:20;12.00;1.00
23783;DHT22;12071;50.850;4.446;2022-12-24T17:33:47;12.10;1.00
23783;DHT22;12071;50.850;4.446;2022-12-24T17:36:13;12.00;1.00
23783;DHT22;12071;50.850;4.446;2022-12-24T17:38:39;11.90;1.00
23783;DHT22;12071;50.850;4.446;2022-12-24T17:41:07;11.70;1.00
23783;DHT22;12071;50.850;4.446;2022-12-24T17:43:34;11.90;1.00
23783;DHT22;12071;50.850;4.446;2022-12-24T17:46:09;11.70;1.00
23783;DHT22;12071;50.850;4.446;2022-12-24T17:48:34;11.60;1.00
23783;DHT22;12071;50.850;4.446;2022-12-24T17:51:04;11.60;1.00
23783;DHT22;12071;50.850;4.446;2022-12-24T17:53:40;11.70;1.00
23783;DHT22;12071;50.850;4.446;2022-12-24T17:56:07;11.80;1.00
23783;DHT22;12071;50.850;4.446;2022-12-24T17:58:35;11.90;1.00
23783;DHT22;12071;50.850;4.446;2022-12-24T18:01:01;11.70;1.00
23783;DHT22;12071;50.850;4.446;2022-12-24T18:03:26;11.60;1.00